sensor_id;sensor_type;location;lat;lon;timestamp;P1;durP1;ratioP1;P2;durP2;ratioP2
65822;SDS011;52585;47.566;19.056;2022-07-10T00:00:39;0.50;;;0.50;;
65822;SDS011;52585;47.566;19.056;2022-07-10T00:03:05;1.50;;;0.60;;
65822;SDS011;52585;47.566;19.056;2022-07-10T00:05:31;1.90;;;0.50;;
65822;SDS011;52585;47.566;19.056;2022-07-10T00:08:00;0.60;;;0.60;;
65822;SDS011;52585;47.566;19.056;2022-07-10T00:10:26;0.40;;;0.40;;
65822;SDS011;52585;47.566;19.056;2022-07-10T00:12:53;0.70;;;0.60;;
65822;SDS011;52585;47.566;19.056;2022-07-10T00:15:19;1.60;;;0.50;;
65822;SDS011;52585;47.566;19.056;2022-07-10T00:17:45;0.50;;;0.50;;
65822;SDS011;52585;47.566;19.056;2022-07-10T00:20:12;0.50;;;0.50;;
65822;SDS011;52585;47.566;19.056;2022-07-10T00:22:39;0.60;;;0.50;;
65822;SDS011;52585;47.566;19.056;2022-07-10T00:25:07;0.60;;;0.60;;
65822;SDS011;52585;47.566;19.056;2022-07-10T00:27:34;0.60;;;0.60;;
65822;SDS011;52585;47.566;19.056;2022-07-10T00:30:00;0.80;;;0.50;;
65822;SDS011;52585;47.566;19.056;2022-07-10T00:32:26;0.70;;;0.60;;
65822;SDS011;52585;47.566;19.056;2022-07-10T00:34:52;0.90;;;0.50;;
65822;SDS011;52585;47.566;19.056;2022-07-10T00:37:18;1.20;;;0.60;;
65822;SDS011;52585;47.566;19.056;2022-07-10T00:39:47;0.50;;;0.50;;
65822;SDS011;52585;47.566;19.056;2022-07-10T00:42:14;2.10;;;0.50;;
65822;SDS011;52585;47.566;19.056;2022-07-10T00:44:42;0.50;;;0.50;;
65822;SDS011;52585;47.566;19.056;2022-07-10T00:47:09;0.50;;;0.50;;
65822;SDS011;52585;47.566;19.056;2022-07-10T00:49:38;0.80;;;0.50;;
65822;SDS011;52585;47.566;19.056;2022-07-10T00:52:09;0.60;;;0.60;;
65822;SDS011;52585;47.566;19.056;2022-07-10T00:54:38;3.00;;;0.50;;
65822;SDS011;52585;47.566;19.056;2022-07-10T00:57:08;0.70;;;0.50;;
65822;SDS011;52585;47.566;19.056;2022-07-10T00:59:35;0.60;;;0.60;;
65822;SDS011;52585;47.566;19.056;2022-07-10T01:02:02;0.90;;;0.40;;
65822;SDS011;52585;47.566;19.056;2022-07-10T01:04:30;0.50;;;0.50;;
65822;SDS011;52585;47.566;19.056;2022-07-10T01:06:58;0.50;;;0.50;;
65822;SDS011;52585;47.566;19.056;2022-07-10T01:09:24;0.80;;;0.60;;
65822;SDS011;52585;47.566;19.056;2022-07-10T01:11:50;0.80;;;0.50;;
65822;SDS011;52585;47.566;19.056;2022-07-10T01:14:16;0.60;;;0.40;;
65822;SDS011;52585;47.566;19.056;2022-07-10T01:16:42;0.50;;;0.50;;
65822;SDS011;52585;47.566;19.056;2022-07-10T01:19:08;0.70;;;0.60;;
65822;SDS011;52585;47.566;19.056;2022-07-10T01:21:36;0.70;;;0.70;;
65822;SDS011;52585;47.566;19.056;2022-07-10T01:24:07;0.60;;;0.60;;
65822;SDS011;52585;47.566;19.056;2022-07-10T01:26:34;0.60;;;0.60;;
65822;SDS011;52585;47.566;19.056;2022-07-10T01:29:06;0.70;;;0.60;;
65822;SDS011;52585;47.566;19.056;2022-07-10T01:31:32;2.60;;;0.70;;
65822;SDS011;52585;47.566;19.056;2022-07-10T01:34:04;0.60;;;0.60;;
65822;SDS011;52585;47.566;19.056;2022-07-10T01:36:32;0.70;;;0.40;;
65822;SDS011;52585;47.566;19.056;2022-07-10T01:38:59;1.30;;;0.50;;
65822;SDS011;52585;47.566;19.056;2022-07-10T01:41:25;0.50;;;0.50;;
65822;SDS011;52585;47.566;19.056;2022-07-10T01:43:53;2.30;;;0.70;;
65822;SDS011;52585;47.566;19.056;2022-07-10T01:46:19;2.30;;;0.60;;
65822;SDS011;52585;47.566;19.056;2022-07-10T01:48:45;1.00;;;0.60;;
65822;SDS011;52585;47.566;19.056;2022-07-10T01:51:12;0.70;;;0.60;;
65822;SDS011;52585;47.566;19.056;2022-07-10T01:53:38;0.90;;;0.60;;
65822;SDS011;52585;47.566;19.056;2022-07-10T01:56:07;1.30;;;0.80;;
65822;SDS011;52585;47.566;19.056;2022-07-10T01:58:35;0.50;;;0.50;;
65822;SDS011;52585;47.566;19.056;2022-07-10T02:01:02;0.60;;;0.60;;
65822;SDS011;52585;47.566;19.056;2022-07-10T02:03:29;0.70;;;0.40;;
65822;SDS011;52585;47.566;19.056;2022-07-10T02:06:13;0.50;;;0.50;;
65822;SDS011;52585;47.566;19.056;2022-07-10T02:08:39;0.60;;;0.60;;
65822;SDS011;52585;47.566;19.056;2022-07-10T02:11:05;1.50;;;0.60;;
65822;SDS011;52585;47.566;19.056;2022-07-10T02:13:31;0.70;;;0.70;;
65822;SDS011;52585;47.566;19.056;2022-07-10T02:15:57;1.90;;;0.60;;
65822;SDS011;52585;47.566;19.056;2022-07-10T02:18:24;1.20;;;0.70;;
65822;SDS011;52585;47.566;19.056;2022-07-10T02:20:50;1.90;;;0.70;;
65822;SDS011;52585;47.566;19.056;2022-07-10T02:23:17;0.60;;;0.60;;
65822;SDS011;52585;47.566;19.056;2022-07-10T02:25:43;1.80;;;0.60;;
65822;SDS011;52585;47.566;19.056;2022-07-10T02:28:10;0.90;;;0.80;;
65822;SDS011;52585;47.566;19.056;2022-07-10T02:30:35;0.80;;;0.70;;
65822;SDS011;52585;47.566;19.056;2022-07-10T02:33:02;0.70;;;0.70;;
65822;SDS011;52585;47.566;19.056;2022-07-10T02:35:28;0.80;;;0.70;;
65822;SDS011;52585;47.566;19.056;2022-07-10T02:37:53;1.30;;;1.00;;
65822;SDS011;52585;47.566;19.056;2022-07-10T02:40:19;1.00;;;0.90;;
65822;SDS011;52585;47.566;19.056;2022-07-10T02:42:44;0.80;;;0.80;;
65822;SDS011;52585;47.566;19.056;2022-07-10T02:45:10;1.10;;;0.80;;
65822;SDS011;52585;47.566;19.056;2022-07-10T02:47:36;2.50;;;0.80;;
65822;SDS011;52585;47.566;19.056;2022-07-10T02:50:02;2.20;;;0.80;;
65822;SDS011;52585;47.566;19.056;2022-07-10T02:52:28;3.30;;;0.80;;
65822;SDS011;52585;47.566;19.056;2022-07-10T02:54:56;0.90;;;0.80;;
65822;SDS011;52585;47.566;19.056;2022-07-10T02:57:22;0.80;;;0.80;;
65822;SDS011;52585;47.566;19.056;2022-07-10T02:59:48;1.00;;;0.80;;
65822;SDS011;52585;47.566;19.056;2022-07-10T03:02:14;1.20;;;0.70;;
65822;SDS011;52585;47.566;19.056;2022-07-10T03:04:40;1.00;;;0.90;;
65822;SDS011;52585;47.566;19.056;2022-07-10T03:07:06;0.80;;;0.80;;
65822;SDS011;52585;47.566;19.056;2022-07-10T03:09:32;1.00;;;0.90;;
65822;SDS011;52585;47.566;19.056;2022-07-10T03:11:58;1.80;;;0.80;;
65822;SDS011;52585;47.566;19.056;2022-07-10T03:14:24;1.00;;;1.00;;
65822;SDS011;52585;47.566;19.056;2022-07-10T03:16:49;1.90;;;0.80;;
65822;SDS011;52585;47.566;19.056;2022-07-10T03:19:15;0.80;;;0.80;;
65822;SDS011;52585;47.566;19.056;2022-07-10T03:21:40;1.50;;;1.00;;
65822;SDS011;52585;47.566;19.056;2022-07-10T03:24:06;0.80;;;0.70;;
65822;SDS011;52585;47.566;19.056;2022-07-10T03:26:32;2.30;;;0.90;;
65822;SDS011;52585;47.566;19.056;2022-07-10T03:28:57;1.20;;;1.20;;
65822;SDS011;52585;47.566;19.056;2022-07-10T03:31:23;1.40;;;1.30;;
65822;SDS011;52585;47.566;19.056;2022-07-10T03:33:48;1.70;;;1.10;;
65822;SDS011;52585;47.566;19.056;2022-07-10T03:36:14;3.70;;;1.20;;
65822;SDS011;52585;47.566;19.056;2022-07-10T03:38:40;1.50;;;0.90;;
65822;SDS011;52585;47.566;19.056;2022-07-10T03:41:06;1.00;;;1.00;;
65822;SDS011;52585;47.566;19.056;2022-07-10T03:43:32;1.10;;;1.00;;
65822;SDS011;52585;47.566;19.056;2022-07-10T03:45:58;1.00;;;1.00;;
65822;SDS011;52585;47.566;19.056;2022-07-10T03:48:24;1.40;;;1.00;;
65822;SDS011;52585;47.566;19.056;2022-07-10T03:50:50;0.90;;;0.90;;
65822;SDS011;52585;47.566;19.056;2022-07-10T03:53:17;1.60;;;1.20;;
65822;SDS011;52585;47.566;19.056;2022-07-10T03:55:43;1.80;;;1.20;;
65822;SDS011;52585;47.566;19.056;2022-07-10T03:58:08;1.20;;;1.10;;
65822;SDS011;52585;47.566;19.056;2022-07-10T04:00:34;2.10;;;0.90;;
65822;SDS011;52585;47.566;19.056;2022-07-10T04:03:04;1.90;;;1.60;;
65822;SDS011;52585;47.566;19.056;2022-07-10T04:05:32;1.50;;;1.20;;
65822;SDS011;52585;47.566;19.056;2022-07-10T04:07:58;1.00;;;1.00;;
65822;SDS011;52585;47.566;19.056;2022-07-10T04:10:26;1.90;;;1.10;;
65822;SDS011;52585;47.566;19.056;2022-07-10T04:12:53;1.20;;;1.10;;
65822;SDS011;52585;47.566;19.056;2022-07-10T04:15:20;1.00;;;1.00;;
65822;SDS011;52585;47.566;19.056;2022-07-10T04:17:47;2.40;;;1.00;;
65822;SDS011;52585;47.566;19.056;2022-07-10T04:20:14;1.30;;;1.20;;
65822;SDS011;52585;47.566;19.056;2022-07-10T04:22:41;1.30;;;1.20;;
65822;SDS011;52585;47.566;19.056;2022-07-10T04:25:08;0.90;;;0.80;;
65822;SDS011;52585;47.566;19.056;2022-07-10T04:27:35;3.60;;;1.00;;
65822;SDS011;52585;47.566;19.056;2022-07-10T04:30:01;2.30;;;1.00;;
65822;SDS011;52585;47.566;19.056;2022-07-10T04:32:28;0.90;;;0.90;;
65822;SDS011;52585;47.566;19.056;2022-07-10T04:34:55;0.80;;;0.80;;
65822;SDS011;52585;47.566;19.056;2022-07-10T04:37:21;1.10;;;1.10;;
65822;SDS011;52585;47.566;19.056;2022-07-10T04:39:46;0.90;;;0.90;;
65822;SDS011;52585;47.566;19.056;2022-07-10T04:42:12;1.70;;;1.00;;
65822;SDS011;52585;47.566;19.056;2022-07-10T04:44:38;1.50;;;1.40;;
65822;SDS011;52585;47.566;19.056;2022-07-10T04:47:05;1.20;;;1.20;;
65822;SDS011;52585;47.566;19.056;2022-07-10T04:49:33;2.10;;;1.20;;
65822;SDS011;52585;47.566;19.056;2022-07-10T04:51:59;1.40;;;1.20;;
65822;SDS011;52585;47.566;19.056;2022-07-10T04:54:25;1.30;;;1.20;;
65822;SDS011;52585;47.566;19.056;2022-07-10T04:56:51;1.50;;;1.20;;
65822;SDS011;52585;47.566;19.056;2022-07-10T04:59:17;1.50;;;1.40;;
65822;SDS011;52585;47.566;19.056;2022-07-10T05:01:43;2.10;;;1.20;;
65822;SDS011;52585;47.566;19.056;2022-07-10T05:04:08;3.00;;;1.30;;
65822;SDS011;52585;47.566;19.056;2022-07-10T05:06:34;1.40;;;1.30;;
65822;SDS011;52585;47.566;19.056;2022-07-10T05:09:01;1.50;;;1.30;;
65822;SDS011;52585;47.566;19.056;2022-07-10T05:11:27;2.10;;;1.20;;
65822;SDS011;52585;47.566;19.056;2022-07-10T05:13:53;2.10;;;1.10;;
65822;SDS011;52585;47.566;19.056;2022-07-10T05:16:19;1.30;;;1.20;;
65822;SDS011;52585;47.566;19.056;2022-07-10T05:18:45;2.10;;;1.00;;
65822;SDS011;52585;47.566;19.056;2022-07-10T05:21:11;2.50;;;1.10;;
65822;SDS011;52585;47.566;19.056;2022-07-10T05:23:38;3.00;;;1.00;;
65822;SDS011;52585;47.566;19.056;2022-07-10T05:26:05;1.10;;;1.00;;
65822;SDS011;52585;47.566;19.056;2022-07-10T05:28:31;1.10;;;1.00;;
65822;SDS011;52585;47.566;19.056;2022-07-10T05:30:57;3.80;;;1.50;;
65822;SDS011;52585;47.566;19.056;2022-07-10T05:33:22;0.90;;;0.90;;
65822;SDS011;52585;47.566;19.056;2022-07-10T05:35:48;2.50;;;1.00;;
65822;SDS011;52585;47.566;19.056;2022-07-10T05:38:14;1.40;;;1.30;;
65822;SDS011;52585;47.566;19.056;2022-07-10T05:40:40;1.80;;;1.30;;
65822;SDS011;52585;47.566;19.056;2022-07-10T05:43:06;1.10;;;1.00;;
65822;SDS011;52585;47.566;19.056;2022-07-10T05:45:32;2.70;;;1.10;;
65822;SDS011;52585;47.566;19.056;2022-07-10T05:47:57;1.30;;;1.20;;
65822;SDS011;52585;47.566;19.056;2022-07-10T05:50:23;2.50;;;1.30;;
65822;SDS011;52585;47.566;19.056;2022-07-10T05:52:48;1.40;;;1.30;;
65822;SDS011;52585;47.566;19.056;2022-07-10T05:55:14;3.10;;;1.50;;
65822;SDS011;52585;47.566;19.056;2022-07-10T05:57:40;1.60;;;1.50;;
65822;SDS011;52585;47.566;19.056;2022-07-10T06:00:07;1.30;;;1.10;;
65822;SDS011;52585;47.566;19.056;2022-07-10T06:02:34;1.90;;;1.30;;
65822;SDS011;52585;47.566;19.056;2022-07-10T06:04:59;1.30;;;1.20;;
65822;SDS011;52585;47.566;19.056;2022-07-10T06:07:26;1.40;;;1.30;;
65822;SDS011;52585;47.566;19.056;2022-07-10T06:09:53;3.30;;;1.50;;
65822;SDS011;52585;47.566;19.056;2022-07-10T06:12:19;1.80;;;1.50;;
65822;SDS011;52585;47.566;19.056;2022-07-10T06:14:45;1.80;;;1.40;;
65822;SDS011;52585;47.566;19.056;2022-07-10T06:17:11;1.60;;;1.20;;
65822;SDS011;52585;47.566;19.056;2022-07-10T06:19:36;1.40;;;1.30;;
65822;SDS011;52585;47.566;19.056;2022-07-10T06:22:02;1.40;;;1.30;;
65822;SDS011;52585;47.566;19.056;2022-07-10T06:24:47;1.40;;;1.30;;
65822;SDS011;52585;47.566;19.056;2022-07-10T06:27:12;2.30;;;1.50;;
65822;SDS011;52585;47.566;19.056;2022-07-10T06:29:38;4.70;;;1.40;;
65822;SDS011;52585;47.566;19.056;2022-07-10T06:32:04;1.80;;;1.30;;
65822;SDS011;52585;47.566;19.056;2022-07-10T06:34:31;1.30;;;1.20;;
65822;SDS011;52585;47.566;19.056;2022-07-10T06:36:56;1.30;;;1.20;;
65822;SDS011;52585;47.566;19.056;2022-07-10T06:39:22;1.70;;;1.40;;
65822;SDS011;52585;47.566;19.056;2022-07-10T06:41:47;2.20;;;1.60;;
65822;SDS011;52585;47.566;19.056;2022-07-10T06:44:13;1.60;;;1.50;;
65822;SDS011;52585;47.566;19.056;2022-07-10T06:46:39;1.40;;;1.30;;
65822;SDS011;52585;47.566;19.056;2022-07-10T06:49:05;1.90;;;1.50;;
65822;SDS011;52585;47.566;19.056;2022-07-10T06:51:31;2.40;;;1.60;;
65822;SDS011;52585;47.566;19.056;2022-07-10T06:53:57;1.70;;;1.40;;
65822;SDS011;52585;47.566;19.056;2022-07-10T06:56:23;1.50;;;1.40;;
65822;SDS011;52585;47.566;19.056;2022-07-10T06:58:49;1.70;;;1.10;;
65822;SDS011;52585;47.566;19.056;2022-07-10T07:01:14;2.00;;;1.40;;
65822;SDS011;52585;47.566;19.056;2022-07-10T07:03:40;1.20;;;1.10;;
65822;SDS011;52585;47.566;19.056;2022-07-10T07:06:06;1.60;;;1.30;;
65822;SDS011;52585;47.566;19.056;2022-07-10T07:08:31;2.30;;;1.40;;
65822;SDS011;52585;47.566;19.056;2022-07-10T07:10:57;1.30;;;1.30;;
65822;SDS011;52585;47.566;19.056;2022-07-10T07:13:23;1.40;;;1.30;;
65822;SDS011;52585;47.566;19.056;2022-07-10T07:15:49;2.10;;;1.20;;
65822;SDS011;52585;47.566;19.056;2022-07-10T07:18:23;1.00;;;1.00;;
65822;SDS011;52585;47.566;19.056;2022-07-10T07:20:57;1.20;;;1.10;;
65822;SDS011;52585;47.566;19.056;2022-07-10T07:23:43;1.30;;;1.20;;
65822;SDS011;52585;47.566;19.056;2022-07-10T07:26:09;1.50;;;1.10;;
65822;SDS011;52585;47.566;19.056;2022-07-10T07:28:34;2.00;;;1.40;;
65822;SDS011;52585;47.566;19.056;2022-07-10T07:31:00;1.30;;;1.20;;
65822;SDS011;52585;47.566;19.056;2022-07-10T07:33:26;1.10;;;1.00;;
65822;SDS011;52585;47.566;19.056;2022-07-10T07:35:52;1.60;;;1.10;;
65822;SDS011;52585;47.566;19.056;2022-07-10T07:38:18;1.80;;;1.10;;
65822;SDS011;52585;47.566;19.056;2022-07-10T07:40:44;1.20;;;1.10;;
65822;SDS011;52585;47.566;19.056;2022-07-10T07:43:10;1.10;;;1.10;;
65822;SDS011;52585;47.566;19.056;2022-07-10T07:45:37;1.00;;;1.00;;
65822;SDS011;52585;47.566;19.056;2022-07-10T07:48:03;1.50;;;0.90;;
65822;SDS011;52585;47.566;19.056;2022-07-10T07:50:34;1.00;;;1.00;;
65822;SDS011;52585;47.566;19.056;2022-07-10T07:53:02;1.70;;;1.00;;
65822;SDS011;52585;47.566;19.056;2022-07-10T07:55:30;1.20;;;1.20;;
65822;SDS011;52585;47.566;19.056;2022-07-10T07:57:57;1.30;;;1.10;;
65822;SDS011;52585;47.566;19.056;2022-07-10T08:00:24;1.50;;;1.00;;
65822;SDS011;52585;47.566;19.056;2022-07-10T08:02:52;1.80;;;1.10;;
65822;SDS011;52585;47.566;19.056;2022-07-10T08:05:19;1.50;;;1.00;;
65822;SDS011;52585;47.566;19.056;2022-07-10T08:07:49;2.70;;;1.00;;
65822;SDS011;52585;47.566;19.056;2022-07-10T08:10:18;1.30;;;1.00;;
65822;SDS011;52585;47.566;19.056;2022-07-10T08:12:47;2.10;;;1.10;;
65822;SDS011;52585;47.566;19.056;2022-07-10T08:15:15;2.70;;;1.10;;
65822;SDS011;52585;47.566;19.056;2022-07-10T08:17:46;0.90;;;0.90;;
65822;SDS011;52585;47.566;19.056;2022-07-10T08:20:13;1.10;;;0.80;;
65822;SDS011;52585;47.566;19.056;2022-07-10T08:22:40;1.70;;;0.90;;
65822;SDS011;52585;47.566;19.056;2022-07-10T08:25:07;3.00;;;1.00;;
65822;SDS011;52585;47.566;19.056;2022-07-10T08:27:34;0.80;;;0.70;;
65822;SDS011;52585;47.566;19.056;2022-07-10T08:29:59;1.10;;;1.00;;
65822;SDS011;52585;47.566;19.056;2022-07-10T08:32:26;1.70;;;1.20;;
65822;SDS011;52585;47.566;19.056;2022-07-10T08:34:52;2.10;;;0.90;;
65822;SDS011;52585;47.566;19.056;2022-07-10T08:37:19;2.00;;;1.10;;
65822;SDS011;52585;47.566;19.056;2022-07-10T08:39:45;1.10;;;1.00;;
65822;SDS011;52585;47.566;19.056;2022-07-10T08:42:11;1.80;;;1.20;;
65822;SDS011;52585;47.566;19.056;2022-07-10T08:44:38;1.30;;;0.90;;
65822;SDS011;52585;47.566;19.056;2022-07-10T08:47:05;1.10;;;1.10;;
65822;SDS011;52585;47.566;19.056;2022-07-10T08:49:32;1.20;;;1.10;;
65822;SDS011;52585;47.566;19.056;2022-07-10T08:52:06;1.50;;;1.00;;
65822;SDS011;52585;47.566;19.056;2022-07-10T08:54:48;3.40;;;1.00;;
65822;SDS011;52585;47.566;19.056;2022-07-10T08:57:15;1.80;;;1.20;;
65822;SDS011;52585;47.566;19.056;2022-07-10T08:59:43;1.90;;;1.00;;
65822;SDS011;52585;47.566;19.056;2022-07-10T09:02:08;2.90;;;0.80;;
65822;SDS011;52585;47.566;19.056;2022-07-10T09:04:35;0.80;;;0.70;;
65822;SDS011;52585;47.566;19.056;2022-07-10T09:07:01;0.80;;;0.80;;
65822;SDS011;52585;47.566;19.056;2022-07-10T09:09:26;1.90;;;1.00;;
65822;SDS011;52585;47.566;19.056;2022-07-10T09:11:56;2.20;;;0.80;;
65822;SDS011;52585;47.566;19.056;2022-07-10T09:14:25;1.90;;;0.90;;
65822;SDS011;52585;47.566;19.056;2022-07-10T09:16:53;1.00;;;0.90;;
65822;SDS011;52585;47.566;19.056;2022-07-10T09:19:27;3.50;;;1.10;;
65822;SDS011;52585;47.566;19.056;2022-07-10T09:22:08;1.10;;;1.00;;
65822;SDS011;52585;47.566;19.056;2022-07-10T09:24:41;1.30;;;0.80;;
65822;SDS011;52585;47.566;19.056;2022-07-10T09:27:09;1.20;;;0.80;;
65822;SDS011;52585;47.566;19.056;2022-07-10T09:29:51;2.20;;;0.80;;
65822;SDS011;52585;47.566;19.056;2022-07-10T09:32:21;1.20;;;0.70;;
65822;SDS011;52585;47.566;19.056;2022-07-10T09:34:49;2.30;;;0.70;;
65822;SDS011;52585;47.566;19.056;2022-07-10T09:37:38;0.80;;;0.80;;
65822;SDS011;52585;47.566;19.056;2022-07-10T09:40:07;0.90;;;0.90;;
65822;SDS011;52585;47.566;19.056;2022-07-10T09:42:42;2.50;;;1.00;;
65822;SDS011;52585;47.566;19.056;2022-07-10T09:47:40;1.40;;;1.00;;
65822;SDS011;52585;47.566;19.056;2022-07-10T09:53:02;2.00;;;1.00;;
65822;SDS011;52585;47.566;19.056;2022-07-10T09:55:34;1.40;;;0.90;;
65822;SDS011;52585;47.566;19.056;2022-07-10T09:58:02;0.70;;;0.70;;
65822;SDS011;52585;47.566;19.056;2022-07-10T10:00:35;3.00;;;1.10;;
65822;SDS011;52585;47.566;19.056;2022-07-10T10:03:03;2.00;;;1.00;;
65822;SDS011;52585;47.566;19.056;2022-07-10T10:08:13;1.80;;;1.00;;
65822;SDS011;52585;47.566;19.056;2022-07-10T10:10:47;0.80;;;0.70;;
65822;SDS011;52585;47.566;19.056;2022-07-10T10:13:22;0.60;;;0.60;;
65822;SDS011;52585;47.566;19.056;2022-07-10T10:15:53;2.00;;;0.70;;
65822;SDS011;52585;47.566;19.056;2022-07-10T10:18:24;2.30;;;0.80;;
65822;SDS011;52585;47.566;19.056;2022-07-10T10:20:55;3.80;;;0.90;;
65822;SDS011;52585;47.566;19.056;2022-07-10T10:23:23;3.90;;;0.80;;
65822;SDS011;52585;47.566;19.056;2022-07-10T10:25:57;3.10;;;0.60;;
65822;SDS011;52585;47.566;19.056;2022-07-10T10:28:24;1.70;;;0.80;;
65822;SDS011;52585;47.566;19.056;2022-07-10T10:30:58;2.70;;;0.60;;
65822;SDS011;52585;47.566;19.056;2022-07-10T10:36:01;1.10;;;0.70;;
65822;SDS011;52585;47.566;19.056;2022-07-10T10:46:56;1.60;;;0.80;;
65822;SDS011;52585;47.566;19.056;2022-07-10T10:49:51;2.30;;;0.70;;
65822;SDS011;52585;47.566;19.056;2022-07-10T10:52:19;0.60;;;0.60;;
65822;SDS011;52585;47.566;19.056;2022-07-10T10:59:57;2.00;;;0.80;;
65822;SDS011;52585;47.566;19.056;2022-07-10T11:02:26;5.00;;;0.90;;
65822;SDS011;52585;47.566;19.056;2022-07-10T11:13:17;2.90;;;0.80;;
65822;SDS011;52585;47.566;19.056;2022-07-10T11:15:46;0.90;;;0.60;;
65822;SDS011;52585;47.566;19.056;2022-07-10T11:18:19;0.90;;;0.60;;
65822;SDS011;52585;47.566;19.056;2022-07-10T11:20:54;4.30;;;0.90;;
65822;SDS011;52585;47.566;19.056;2022-07-10T11:29:09;2.20;;;0.60;;
65822;SDS011;52585;47.566;19.056;2022-07-10T11:31:35;4.70;;;0.80;;
65822;SDS011;52585;47.566;19.056;2022-07-10T11:34:09;3.60;;;0.80;;
65822;SDS011;52585;47.566;19.056;2022-07-10T11:36:38;3.90;;;0.70;;
65822;SDS011;52585;47.566;19.056;2022-07-10T11:39:06;1.00;;;0.90;;
65822;SDS011;52585;47.566;19.056;2022-07-10T11:41:34;3.70;;;0.60;;
65822;SDS011;52585;47.566;19.056;2022-07-10T11:44:13;4.00;;;0.70;;
65822;SDS011;52585;47.566;19.056;2022-07-10T11:46:43;5.40;;;0.90;;
65822;SDS011;52585;47.566;19.056;2022-07-10T11:49:11;1.70;;;1.00;;
65822;SDS011;52585;47.566;19.056;2022-07-10T11:51:40;5.00;;;1.10;;
65822;SDS011;52585;47.566;19.056;2022-07-10T11:56:52;0.70;;;0.60;;
65822;SDS011;52585;47.566;19.056;2022-07-10T11:59:24;3.00;;;1.00;;
65822;SDS011;52585;47.566;19.056;2022-07-10T12:01:52;3.30;;;0.60;;
65822;SDS011;52585;47.566;19.056;2022-07-10T12:04:22;3.40;;;0.50;;
65822;SDS011;52585;47.566;19.056;2022-07-10T12:06:52;0.80;;;0.70;;
65822;SDS011;52585;47.566;19.056;2022-07-10T12:09:20;2.00;;;0.80;;
65822;SDS011;52585;47.566;19.056;2022-07-10T12:14:27;3.50;;;0.70;;
65822;SDS011;52585;47.566;19.056;2022-07-10T12:16:54;6.70;;;0.70;;
65822;SDS011;52585;47.566;19.056;2022-07-10T12:19:27;1.20;;;0.70;;
65822;SDS011;52585;47.566;19.056;2022-07-10T12:22:01;1.10;;;0.50;;
65822;SDS011;52585;47.566;19.056;2022-07-10T12:24:29;0.70;;;0.60;;
65822;SDS011;52585;47.566;19.056;2022-07-10T12:26:56;2.40;;;0.60;;
65822;SDS011;52585;47.566;19.056;2022-07-10T12:29:28;2.20;;;0.70;;
65822;SDS011;52585;47.566;19.056;2022-07-10T12:31:57;2.50;;;0.60;;
65822;SDS011;52585;47.566;19.056;2022-07-10T12:34:41;5.40;;;1.60;;
65822;SDS011;52585;47.566;19.056;2022-07-10T12:37:13;1.50;;;0.70;;
65822;SDS011;52585;47.566;19.056;2022-07-10T12:39:48;3.20;;;0.60;;
65822;SDS011;52585;47.566;19.056;2022-07-10T12:42:31;14.40;;;0.80;;
65822;SDS011;52585;47.566;19.056;2022-07-10T12:47:47;3.10;;;0.80;;
65822;SDS011;52585;47.566;19.056;2022-07-10T12:50:15;1.20;;;0.70;;
65822;SDS011;52585;47.566;19.056;2022-07-10T12:52:45;2.00;;;0.70;;
65822;SDS011;52585;47.566;19.056;2022-07-10T12:57:54;6.60;;;0.70;;
65822;SDS011;52585;47.566;19.056;2022-07-10T13:00:30;3.00;;;0.70;;
65822;SDS011;52585;47.566;19.056;2022-07-10T13:03:01;0.80;;;0.70;;
65822;SDS011;52585;47.566;19.056;2022-07-10T13:05:34;4.30;;;0.70;;
65822;SDS011;52585;47.566;19.056;2022-07-10T13:10:47;4.30;;;0.80;;
65822;SDS011;52585;47.566;19.056;2022-07-10T13:13:15;1.30;;;0.70;;
65822;SDS011;52585;47.566;19.056;2022-07-10T13:15:45;0.80;;;0.80;;
65822;SDS011;52585;47.566;19.056;2022-07-10T13:18:19;9.70;;;0.90;;
65822;SDS011;52585;47.566;19.056;2022-07-10T13:20:48;5.40;;;0.70;;
65822;SDS011;52585;47.566;19.056;2022-07-10T13:23:16;5.20;;;0.80;;
65822;SDS011;52585;47.566;19.056;2022-07-10T13:25:44;2.70;;;0.70;;
65822;SDS011;52585;47.566;19.056;2022-07-10T13:28:10;1.60;;;0.80;;
65822;SDS011;52585;47.566;19.056;2022-07-10T13:30:37;0.90;;;0.70;;
65822;SDS011;52585;47.566;19.056;2022-07-10T13:33:03;1.30;;;0.60;;
65822;SDS011;52585;47.566;19.056;2022-07-10T13:35:31;3.40;;;0.70;;
65822;SDS011;52585;47.566;19.056;2022-07-10T13:38:01;1.20;;;0.60;;
65822;SDS011;52585;47.566;19.056;2022-07-10T13:40:29;2.10;;;0.70;;
65822;SDS011;52585;47.566;19.056;2022-07-10T13:42:57;1.70;;;0.80;;
65822;SDS011;52585;47.566;19.056;2022-07-10T13:45:23;2.70;;;1.00;;
65822;SDS011;52585;47.566;19.056;2022-07-10T13:47:51;1.00;;;0.70;;
65822;SDS011;52585;47.566;19.056;2022-07-10T13:50:19;1.20;;;0.60;;
65822;SDS011;52585;47.566;19.056;2022-07-10T13:52:46;2.80;;;0.90;;
65822;SDS011;52585;47.566;19.056;2022-07-10T13:55:12;8.40;;;0.80;;
65822;SDS011;52585;47.566;19.056;2022-07-10T13:57:38;4.30;;;0.80;;
65822;SDS011;52585;47.566;19.056;2022-07-10T14:00:05;2.00;;;0.60;;
65822;SDS011;52585;47.566;19.056;2022-07-10T14:02:32;2.50;;;0.80;;
65822;SDS011;52585;47.566;19.056;2022-07-10T14:04:58;2.60;;;0.70;;
65822;SDS011;52585;47.566;19.056;2022-07-10T14:07:24;1.80;;;0.50;;
65822;SDS011;52585;47.566;19.056;2022-07-10T14:09:50;5.30;;;0.70;;
65822;SDS011;52585;47.566;19.056;2022-07-10T14:12:16;2.70;;;0.60;;
65822;SDS011;52585;47.566;19.056;2022-07-10T14:14:41;1.30;;;0.70;;
65822;SDS011;52585;47.566;19.056;2022-07-10T14:17:08;2.00;;;0.80;;
65822;SDS011;52585;47.566;19.056;2022-07-10T14:19:33;3.20;;;0.70;;
65822;SDS011;52585;47.566;19.056;2022-07-10T14:22:00;3.30;;;0.80;;
65822;SDS011;52585;47.566;19.056;2022-07-10T14:24:26;4.10;;;0.80;;
65822;SDS011;52585;47.566;19.056;2022-07-10T14:26:52;6.30;;;0.70;;
65822;SDS011;52585;47.566;19.056;2022-07-10T14:29:19;2.30;;;0.50;;
65822;SDS011;52585;47.566;19.056;2022-07-10T14:31:45;6.10;;;0.90;;
65822;SDS011;52585;47.566;19.056;2022-07-10T14:34:17;7.10;;;1.10;;
65822;SDS011;52585;47.566;19.056;2022-07-10T14:36:43;2.40;;;0.60;;
65822;SDS011;52585;47.566;19.056;2022-07-10T14:39:10;3.10;;;0.60;;
65822;SDS011;52585;47.566;19.056;2022-07-10T14:41:39;6.00;;;0.70;;
65822;SDS011;52585;47.566;19.056;2022-07-10T14:44:08;2.20;;;0.50;;
65822;SDS011;52585;47.566;19.056;2022-07-10T14:46:34;2.20;;;0.50;;
65822;SDS011;52585;47.566;19.056;2022-07-10T14:49:00;2.60;;;0.90;;
65822;SDS011;52585;47.566;19.056;2022-07-10T14:51:26;2.80;;;0.80;;
65822;SDS011;52585;47.566;19.056;2022-07-10T14:53:52;1.50;;;0.50;;
65822;SDS011;52585;47.566;19.056;2022-07-10T14:56:19;0.60;;;0.50;;
65822;SDS011;52585;47.566;19.056;2022-07-10T14:58:45;2.10;;;0.70;;
65822;SDS011;52585;47.566;19.056;2022-07-10T15:01:12;1.20;;;0.50;;
65822;SDS011;52585;47.566;19.056;2022-07-10T15:03:38;4.10;;;0.60;;
65822;SDS011;52585;47.566;19.056;2022-07-10T15:06:04;2.10;;;0.60;;
65822;SDS011;52585;47.566;19.056;2022-07-10T15:08:29;3.20;;;0.70;;
65822;SDS011;52585;47.566;19.056;2022-07-10T15:10:56;3.80;;;0.80;;
65822;SDS011;52585;47.566;19.056;2022-07-10T15:13:21;2.10;;;0.70;;
65822;SDS011;52585;47.566;19.056;2022-07-10T15:15:47;2.00;;;0.50;;
65822;SDS011;52585;47.566;19.056;2022-07-10T15:18:15;1.20;;;0.50;;
65822;SDS011;52585;47.566;19.056;2022-07-10T15:20:40;4.20;;;0.70;;
65822;SDS011;52585;47.566;19.056;2022-07-10T15:23:06;2.60;;;0.60;;
65822;SDS011;52585;47.566;19.056;2022-07-10T15:25:32;4.00;;;0.70;;
65822;SDS011;52585;47.566;19.056;2022-07-10T15:27:57;4.70;;;0.70;;